Fisty, Kentucky
Current Conditions -  °F | °C
As of 7:53 AM on Thursday 18 Dec 2014 (Local Time) from KJKL Reporting Station
Overcast Overcast  
Wind Chill: 28°   Ceiling: 1400
Heat Index: 28°   Visibility: 10mi
Dew Point: 23°   Wind: 0mph
Humidity: 81%   Direction: NA
Pressure: 30.23"   Gusts: NA
Location:  37.33°N, 83.1°W
Report Text: KJKL 181253Z AUTO 00000KT 10SM OVC014 M02/M05 A3023 RMK AO2 SLP247 T10221050
Loading
Personal Weather Stations






























Interactive Weather Map New forecast layout! Learn more

10-Day Weather Forecast

Advertisements
Track Severe Weather on mobile